Time;durP1;ratioP1;P1;durP2;ratioP2;P2;SDS_P1;SDS_P2;PMS_P1;PMS_P2;Temp;Humidity;BMP_temperature;BMP_pressure;BME280_temperature;BME280_humidity;BME280_pressure;Samples;Min_cycle;Max_cycle;Signal;HPM_P1;HPM_P2
2022/03/22 00:02:30;;;;;;;253.63;76.30;;;;;;;3.37;51.52;102724.39;713408;1175;114405;-77
2022/03/22 00:17:32;;;;;;;186.73;63.60;;;;;;;3.26;52.01;102721.13;713471;1177;115257;-77
2022/03/22 00:32:34;;;;;;;164.03;50.87;;;;;;;3.19;52.37;102719.55;714344;1176;114488;-77
2022/03/22 00:47:36;;;;;;;185.15;58.25;;;;;;;2.99;52.92;102721.59;714017;1175;115343;-78
2022/03/22 01:02:49;;;;;;;145.75;46.40;;;;;;;2.87;52.76;102719.22;713699;1176;114462;-77
2022/03/22 01:17:54;;;;;;;144.93;44.68;;;;;;;2.73;53.11;102713.41;713077;1175;114433;-77
2022/03/22 01:32:56;;;;;;;139.95;46.28;;;;;;;2.70;52.88;102709.13;713577;1174;115367;-77
2022/03/22 01:48:05;;;;;;;93.15;34.95;;;;;;;2.47;53.50;102701.73;713362;1174;114480;-78
2022/03/22 02:18:28;;;;;;;92.65;34.60;;;;;;;2.18;54.74;102692.66;713513;1174;114952;-77
2022/03/22 02:33:31;;;;;;;102.53;35.53;;;;;;;2.02;54.52;102692.02;713032;1174;115589;-76
2022/03/22 02:48:36;;;;;;;89.90;33.10;;;;;;;1.96;55.06;102694.67;713409;1174;115648;-76
2022/03/22 03:03:38;;;;;;;68.55;25.05;;;;;;;1.95;55.08;102698.14;713535;1175;115087;-76
2022/03/22 03:18:40;;;;;;;66.15;25.35;;;;;;;1.85;55.27;102712.07;713913;1174;115044;-78
2022/03/22 03:33:43;;;;;;;62.28;24.10;;;;;;;1.80;55.24;102712.98;714238;1177;114866;-78
2022/03/22 03:48:45;;;;;;;92.73;30.67;;;;;;;1.72;55.04;102709.64;713930;1177;115175;-76
2022/03/22 04:03:48;;;;;;;68.68;25.58;;;;;;;1.63;55.29;102720.11;713374;1175;115445;-77
2022/03/22 04:18:52;;;;;;;85.38;30.35;;;;;;;1.51;55.89;102728.02;713795;1174;115325;-76
2022/03/22 04:33:55;;;;;;;95.83;33.73;;;;;;;1.47;55.48;102725.45;713653;1175;116305;-76
2022/03/22 04:48:57;;;;;;;104.73;35.45;;;;;;;1.43;56.18;102726.36;713340;1177;115132;-78
2022/03/22 05:03:59;;;;;;;106.37;34.47;;;;;;;1.53;55.82;102732.30;713231;1177;114780;-77
2022/03/22 05:19:04;;;;;;;101.00;34.15;;;;;;;1.43;56.57;102728.95;713627;1177;115123;-74
2022/03/22 05:34:07;;;;;;;71.50;27.20;;;;;;;1.61;56.63;102722.72;713310;1174;115115;-74
2022/03/22 05:49:09;;;;;;;95.27;34.87;;;;;;;1.85;56.57;102715.53;713400;1174;115394;-75
2022/03/22 06:04:12;;;;;;;104.03;39.67;;;;;;;2.29;57.17;102726.17;714427;1176;114775;-73
2022/03/22 06:19:14;;;;;;;219.68;70.00;;;;;;;3.04;57.15;102721.53;713986;1174;115632;-75
2022/03/22 06:34:17;;;;;;;419.45;137.60;;;;;;;4.15;57.18;102724.52;714070;1175;115967;-71
2022/03/22 06:49:19;;;;;;;217.18;87.93;;;;;;;5.63;56.43;102719.95;714547;1174;114593;-82
2022/03/22 07:04:21;;;;;;;215.70;88.45;;;;;;;7.57;55.69;102727.66;715440;1176;115833;-78
2022/03/22 07:19:23;;;;;;;458.07;170.23;;;;;;;9.49;54.88;102731.31;717511;1175;115957;-80
2022/03/22 07:34:27;;;;;;;429.53;159.90;;;;;;;11.31;53.18;102734.86;714027;1177;115446;-80
2022/03/22 08:04:51;;;;;;;73.93;35.90;;;;;;;13.87;49.13;102730.80;715618;1177;114619;-80
2022/03/22 08:19:53;;;;;;;36.95;19.05;;;;;;;15.04;45.10;102728.44;720060;1177;115893;-80
2022/03/22 08:34:55;;;;;;;71.97;33.77;;;;;;;16.21;43.15;102735.23;716293;1175;115447;-72
2022/03/22 08:49:58;;;;;;;31.60;17.83;;;;;;;16.54;40.67;102720.44;715448;1175;116233;-71
2022/03/22 09:20:23;;;;;;;25.38;12.70;;;;;;;17.64;37.74;102712.01;714398;1176;115079;-74
2022/03/22 09:35:26;;;;;;;214.73;84.50;;;;;;;18.13;37.72;102700.10;726344;1175;115259;-74
2022/03/22 10:05:58;;;;;;;26.25;16.15;;;;;;;18.44;36.52;102676.28;713765;1174;115735;-72
2022/03/22 10:21:04;;;;;;;26.98;15.93;;;;;;;19.30;35.98;102672.55;714583;1176;115451;-74
2022/03/22 10:36:15;;;;;;;24.63;14.10;;;;;;;20.51;35.75;102653.73;715728;1174;114998;-73
2022/03/22 10:51:17;;;;;;;26.33;15.03;;;;;;;20.56;34.93;102643.47;721123;1174;115996;-73
2022/03/22 11:06:21;;;;;;;25.63;15.83;;;;;;;20.46;34.28;102622.19;714792;1174;115334;-75
2022/03/22 11:21:26;;;;;;;26.17;16.47;;;;;;;20.83;34.10;102591.23;714132;1176;115778;-71
2022/03/22 11:36:42;;;;;;;32.57;17.27;;;;;;;21.42;33.78;102571.20;716440;1174;116110;-70
2022/03/22 11:51:47;;;;;;;31.70;17.43;;;;;;;21.42;33.10;102567.70;714562;1174;115162;-71
2022/03/22 12:06:53;;;;;;;28.70;13.58;;;;;;;21.45;32.51;102541.52;714126;1174;115342;-71
2022/03/22 12:21:56;;;;;;;24.63;12.68;;;;;;;21.61;31.41;102527.50;714002;1174;116093;-70
2022/03/22 12:37:00;;;;;;;23.50;11.60;;;;;;;22.28;30.32;102508.25;714891;1174;115777;-71
2022/03/22 12:52:03;;;;;;;21.20;12.80;;;;;;;22.99;30.97;102504.52;715407;1175;116054;-71
2022/03/22 13:07:06;;;;;;;24.77;13.43;;;;;;;22.95;31.29;102487.98;714582;1174;115885;-86
2022/03/22 13:22:21;;;;;;;28.23;12.97;;;;;;;23.19;31.40;102464.97;713857;1174;115600;-74
2022/03/22 13:37:24;;;;;;;23.83;12.33;;;;;;;23.07;30.28;102456.39;714901;1177;115521;-74
2022/03/22 13:52:30;;;;;;;21.17;13.23;;;;;;;25.64;29.82;102436.36;714688;1175;115080;-76
2022/03/22 14:07:33;;;;;;;19.95;12.08;;;;;;;32.84;27.70;102408.80;715858;1174;116205;-72
2022/03/22 14:22:35;;;;;;;21.50;12.58;;;;;;;33.99;25.79;102397.47;720409;1174;115991;-72
2022/03/22 14:37:38;;;;;;;16.75;10.98;;;;;;;35.91;26.08;102377.56;715356;1174;116798;-74
2022/03/22 15:08:05;;;;;;;25.77;17.60;;;;;;;24.97;27.86;102327.05;714814;1174;115188;-85
2022/03/22 15:23:14;;;;;;;48.23;28.85;;;;;;;26.58;28.88;102329.98;715593;1175;115922;-84
2022/03/22 15:38:18;;;;;;;20.13;13.25;;;;;;;28.28;27.31;102318.16;715612;1177;114505;-81
2022/03/22 15:53:20;;;;;;;23.77;15.70;;;;;;;23.48;29.72;102298.41;714736;1174;115582;-76
2022/03/22 16:08:23;;;;;;;31.93;20.00;;;;;;;23.54;29.75;102289.66;714329;1174;115505;-75
2022/03/22 16:23:28;;;;;;;21.73;13.53;;;;;;;22.22;30.83;102286.20;715515;1175;116066;-77
2022/03/22 16:39:20;;;;;;;37.50;24.68;;;;;;;20.64;32.02;102275.66;716368;1175;114737;-83
2022/03/22 16:53:54;;;;;;;40.00;22.35;;;;;;;18.59;33.24;102279.94;716237;1174;116056;-87
2022/03/22 17:08:57;;;;;;;104.90;49.93;;;;;;;16.94;35.17;102282.66;716198;1174;115985;-74
2022/03/22 17:24:05;;;;;;;126.10;47.50;;;;;;;15.43;36.22;102277.02;715106;1174;115217;-85
2022/03/22 17:39:08;;;;;;;282.60;104.85;;;;;;;15.11;37.64;102271.55;715267;1174;115538;-76
2022/03/22 17:54:11;;;;;;;172.65;71.18;;;;;;;14.42;39.42;102275.70;714722;1177;115033;-80
2022/03/22 18:09:14;;;;;;;130.20;55.43;;;;;;;13.58;39.92;102274.63;715749;1174;115966;-93
2022/03/22 18:24:17;;;;;;;208.18;73.98;;;;;;;12.69;40.51;102282.29;715669;1177;116284;-90
2022/03/22 18:39:19;;;;;;;251.90;68.05;;;;;;;12.10;41.32;102262.37;718258;1175;115144;-88
2022/03/22 18:54:22;;;;;;;234.60;76.48;;;;;;;11.41;42.42;102269.20;716120;1176;114755;-88
2022/03/22 19:09:26;;;;;;;244.20;109.23;;;;;;;11.01;43.38;102266.30;716349;1174;115891;-71
2022/03/22 19:24:34;;;;;;;87.00;35.67;;;;;;;10.15;44.37;102250.08;714507;1177;116004;-72
2022/03/22 19:39:36;;;;;;;361.30;117.65;;;;;;;9.80;44.97;102237.09;714359;1175;115957;-72
2022/03/22 19:54:40;;;;;;;405.58;132.98;;;;;;;9.36;46.41;102229.83;714856;1174;116227;-73
2022/03/22 20:09:43;;;;;;;331.28;109.48;;;;;;;8.91;47.04;102226.86;714457;1174;115502;-71
2022/03/22 20:24:45;;;;;;;332.38;113.58;;;;;;;8.60;46.64;102228.36;715914;1174;116160;-72
2022/03/22 20:39:48;;;;;;;277.93;94.75;;;;;;;8.41;47.45;102223.16;714540;1174;115816;-72
2022/03/22 20:54:50;;;;;;;153.95;58.33;;;;;;;8.06;48.13;102217.82;714975;1174;114454;-72
2022/03/22 21:09:53;;;;;;;386.58;127.90;;;;;;;7.44;49.09;102209.31;715277;1174;115000;-72
2022/03/22 21:24:57;;;;;;;263.43;89.95;;;;;;;7.36;49.47;102209.65;714047;1175;114674;-71
2022/03/22 21:39:59;;;;;;;271.83;93.27;;;;;;;7.10;50.11;102200.33;713466;1174;115722;-71
2022/03/22 21:55:03;;;;;;;120.00;48.75;;;;;;;6.70;50.27;102191.59;713826;1174;114655;-71
2022/03/22 22:10:06;;;;;;;376.40;112.00;;;;;;;6.40;50.74;102179.75;714754;1175;116095;-71
2022/03/22 22:25:08;;;;;;;375.25;115.20;;;;;;;6.12;51.33;102170.42;713457;1174;116031;-71
2022/03/22 22:40:11;;;;;;;302.78;98.68;;;;;;;5.96;52.10;102158.85;713416;1174;115985;-70
2022/03/22 22:55:15;;;;;;;182.00;61.77;;;;;;;5.96;52.07;102157.08;713552;1175;114599;-71
2022/03/22 23:10:18;;;;;;;355.93;108.17;;;;;;;5.65;52.78;102149.63;713543;1174;115031;-71
2022/03/22 23:25:20;;;;;;;419.20;128.33;;;;;;;5.44;52.93;102128.67;713362;1174;114926;-71
2022/03/22 23:40:23;;;;;;;368.08;97.68;;;;;;;5.22;53.83;102119.96;713481;1174;116183;-71
2022/03/22 23:55:25;;;;;;;214.40;66.87;;;;;;;5.03;52.88;102127.56;713542;1175;115785;-72
